sensor_id;sensor_type;location;lat;lon;timestamp;pressure;altitude;pressure_sealevel;temperature;humidity
49827;BME280;35715;51.570;6.036;2022-09-25T00:01:09;101387.41;;;14.30;89.33
49827;BME280;35715;51.570;6.036;2022-09-25T00:03:35;101385.53;;;14.28;89.37
49827;BME280;35715;51.570;6.036;2022-09-25T00:08:31;101391.63;;;14.28;88.78
49827;BME280;35715;51.570;6.036;2022-09-25T00:11:04;101386.34;;;14.27;88.57
49827;BME280;35715;51.570;6.036;2022-09-25T00:13:30;101397.50;;;14.26;88.50
49827;BME280;35715;51.570;6.036;2022-09-25T00:15:55;101390.44;;;14.23;88.89
49827;BME280;35715;51.570;6.036;2022-09-25T00:18:22;101390.44;;;14.23;88.46
49827;BME280;35715;51.570;6.036;2022-09-25T00:21:09;101389.44;;;14.21;88.48
49827;BME280;35715;51.570;6.036;2022-09-25T00:23:36;101392.81;;;14.20;87.92
49827;BME280;35715;51.570;6.036;2022-09-25T00:26:03;101396.16;;;14.17;88.28
49827;BME280;35715;51.570;6.036;2022-09-25T00:28:30;101394.34;;;14.16;88.07
49827;BME280;35715;51.570;6.036;2022-09-25T00:30:56;101389.94;;;14.15;87.96
49827;BME280;35715;51.570;6.036;2022-09-25T00:33:22;101394.16;;;14.13;88.35
49827;BME280;35715;51.570;6.036;2022-09-25T00:35:47;101393.19;;;14.11;88.40
49827;BME280;35715;51.570;6.036;2022-09-25T00:38:13;101392.16;;;14.09;88.80
49827;BME280;35715;51.570;6.036;2022-09-25T00:40:57;101388.22;;;14.01;87.26
49827;BME280;35715;51.570;6.036;2022-09-25T00:43:35;101390.63;;;13.98;87.58
49827;BME280;35715;51.570;6.036;2022-09-25T00:46:04;101390.63;;;13.98;87.78
49827;BME280;35715;51.570;6.036;2022-09-25T00:48:31;101386.91;;;13.94;87.83
49827;BME280;35715;51.570;6.036;2022-09-25T00:51:04;101388.44;;;13.91;87.69
49827;BME280;35715;51.570;6.036;2022-09-25T00:53:33;101385.56;;;13.86;87.65
49827;BME280;35715;51.570;6.036;2022-09-25T00:56:01;101397.25;;;13.79;87.75
49827;BME280;35715;51.570;6.036;2022-09-25T00:58:30;101395.44;;;13.78;87.81
49827;BME280;35715;51.570;6.036;2022-09-25T01:00:58;101402.25;;;13.76;87.86
49827;BME280;35715;51.570;6.036;2022-09-25T01:03:24;101402.16;;;13.75;87.59
49827;BME280;35715;51.570;6.036;2022-09-25T01:05:50;101403.72;;;13.73;87.84
49827;BME280;35715;51.570;6.036;2022-09-25T01:08:20;101395.84;;;13.71;87.96
49827;BME280;35715;51.570;6.036;2022-09-25T01:11:00;101399.03;;;13.67;87.61
49827;BME280;35715;51.570;6.036;2022-09-25T01:13:26;101392.88;;;13.65;87.69
49827;BME280;35715;51.570;6.036;2022-09-25T01:18:52;101401.53;;;13.65;87.61
49827;BME280;35715;51.570;6.036;2022-09-25T01:21:36;101393.75;;;13.65;87.55
49827;BME280;35715;51.570;6.036;2022-09-25T01:35:34;101401.75;;;13.55;87.47
49827;BME280;35715;51.570;6.036;2022-09-25T01:38:09;101394.56;;;13.51;86.59
49827;BME280;35715;51.570;6.036;2022-09-25T01:43:24;101401.16;;;13.46;87.34
49827;BME280;35715;51.570;6.036;2022-09-25T01:45:54;101397.84;;;13.48;87.40
49827;BME280;35715;51.570;6.036;2022-09-25T01:48:30;101397.66;;;13.45;87.90
49827;BME280;35715;51.570;6.036;2022-09-25T01:54:25;101408.72;;;13.43;88.12
49827;BME280;35715;51.570;6.036;2022-09-25T01:57:01;101407.84;;;13.42;87.77
49827;BME280;35715;51.570;6.036;2022-09-25T02:02:21;101407.94;;;13.44;87.47
49827;BME280;35715;51.570;6.036;2022-09-25T02:04:52;101402.59;;;13.29;87.78
49827;BME280;35715;51.570;6.036;2022-09-25T02:07:24;101408.31;;;13.37;87.60
49827;BME280;35715;51.570;6.036;2022-09-25T02:10:02;101412.72;;;13.38;87.14
49827;BME280;35715;51.570;6.036;2022-09-25T02:12:33;101415.31;;;13.38;87.47
49827;BME280;35715;51.570;6.036;2022-09-25T02:15:05;101419.59;;;13.37;87.04
49827;BME280;35715;51.570;6.036;2022-09-25T02:17:40;101420.69;;;13.41;86.78
49827;BME280;35715;51.570;6.036;2022-09-25T02:20:29;101420.59;;;13.39;86.65
49827;BME280;35715;51.570;6.036;2022-09-25T02:23:05;101422.41;;;13.40;86.51
49827;BME280;35715;51.570;6.036;2022-09-25T02:25:44;101430.88;;;13.38;85.62
49827;BME280;35715;51.570;6.036;2022-09-25T02:28:10;101427.19;;;13.34;85.90
49827;BME280;35715;51.570;6.036;2022-09-25T02:30:41;101431.94;;;13.28;85.47
49827;BME280;35715;51.570;6.036;2022-09-25T02:33:08;101421.56;;;13.28;85.65
49827;BME280;35715;51.570;6.036;2022-09-25T02:35:34;101425.81;;;13.27;85.37
49827;BME280;35715;51.570;6.036;2022-09-25T02:37:59;101423.13;;;13.26;85.52
49827;BME280;35715;51.570;6.036;2022-09-25T02:43:19;101424.13;;;13.14;85.38
49827;BME280;35715;51.570;6.036;2022-09-25T02:48:55;101415.03;;;13.08;85.62
49827;BME280;35715;51.570;6.036;2022-09-25T02:54:21;101412.34;;;13.06;85.71
49827;BME280;35715;51.570;6.036;2022-09-25T02:57:02;101414.16;;;13.07;85.51
49827;BME280;35715;51.570;6.036;2022-09-25T02:59:35;101412.44;;;13.08;85.41
49827;BME280;35715;51.570;6.036;2022-09-25T03:02:02;101412.44;;;13.08;85.85
49827;BME280;35715;51.570;6.036;2022-09-25T03:04:28;101416.75;;;13.07;85.43
49827;BME280;35715;51.570;6.036;2022-09-25T03:06:56;101412.25;;;13.05;85.15
49827;BME280;35715;51.570;6.036;2022-09-25T03:09:23;101412.97;;;13.02;85.62
49827;BME280;35715;51.570;6.036;2022-09-25T03:14:33;101406.66;;;12.99;86.15
49827;BME280;35715;51.570;6.036;2022-09-25T03:17:01;101413.44;;;12.96;85.79
49827;BME280;35715;51.570;6.036;2022-09-25T03:19:31;101415.81;;;12.93;86.34
49827;BME280;35715;51.570;6.036;2022-09-25T03:21:59;101404.47;;;12.91;86.26
49827;BME280;35715;51.570;6.036;2022-09-25T03:24:24;101413.91;;;12.91;86.27
49827;BME280;35715;51.570;6.036;2022-09-25T03:26:50;101405.84;;;12.86;86.50
49827;BME280;35715;51.570;6.036;2022-09-25T03:29:16;101403.16;;;12.85;86.10
49827;BME280;35715;51.570;6.036;2022-09-25T03:31:42;101405.63;;;12.83;86.16
49827;BME280;35715;51.570;6.036;2022-09-25T03:34:08;101412.50;;;12.83;86.24
49827;BME280;35715;51.570;6.036;2022-09-25T03:36:34;101401.13;;;12.81;86.04
49827;BME280;35715;51.570;6.036;2022-09-25T03:39:00;101400.94;;;12.77;86.46
49827;BME280;35715;51.570;6.036;2022-09-25T03:44:13;101401.63;;;12.75;86.53
49827;BME280;35715;51.570;6.036;2022-09-25T03:46:38;101403.41;;;12.76;86.78
49827;BME280;35715;51.570;6.036;2022-09-25T03:49:04;101405.22;;;12.77;86.66
49827;BME280;35715;51.570;6.036;2022-09-25T03:51:44;101394.75;;;12.75;86.54
49827;BME280;35715;51.570;6.036;2022-09-25T03:54:09;101402.44;;;12.74;86.71
49827;BME280;35715;51.570;6.036;2022-09-25T03:56:53;101402.22;;;12.71;86.59
49827;BME280;35715;51.570;6.036;2022-09-25T03:59:41;101399.41;;;12.68;86.59
49827;BME280;35715;51.570;6.036;2022-09-25T04:02:07;101409.66;;;12.66;86.13
49827;BME280;35715;51.570;6.036;2022-09-25T04:04:32;101401.69;;;12.63;86.04
49827;BME280;35715;51.570;6.036;2022-09-25T04:06:58;101404.19;;;12.62;86.05
49827;BME280;35715;51.570;6.036;2022-09-25T04:09:39;101403.06;;;12.58;85.85
49827;BME280;35715;51.570;6.036;2022-09-25T04:12:05;101404.75;;;12.57;86.04
49827;BME280;35715;51.570;6.036;2022-09-25T04:14:32;101409.81;;;12.56;86.26
49827;BME280;35715;51.570;6.036;2022-09-25T04:16:58;101407.13;;;12.54;86.47
49827;BME280;35715;51.570;6.036;2022-09-25T04:19:23;101401.75;;;12.51;86.14
49827;BME280;35715;51.570;6.036;2022-09-25T04:21:48;101398.94;;;12.48;86.51
49827;BME280;35715;51.570;6.036;2022-09-25T04:24:14;101398.75;;;12.45;86.56
49827;BME280;35715;51.570;6.036;2022-09-25T04:26:58;101395.72;;;12.39;86.79
49827;BME280;35715;51.570;6.036;2022-09-25T04:29:36;101391.22;;;12.36;87.06
49827;BME280;35715;51.570;6.036;2022-09-25T04:32:02;101399.47;;;12.31;86.81
49827;BME280;35715;51.570;6.036;2022-09-25T04:34:45;101401.63;;;12.24;86.85
49827;BME280;35715;51.570;6.036;2022-09-25T04:37:11;101395.25;;;12.19;86.82
49827;BME280;35715;51.570;6.036;2022-09-25T04:42:30;101410.00;;;12.09;87.30
49827;BME280;35715;51.570;6.036;2022-09-25T04:44:56;101407.22;;;12.05;87.59
49827;BME280;35715;51.570;6.036;2022-09-25T04:47:24;101411.47;;;12.05;87.87
49827;BME280;35715;51.570;6.036;2022-09-25T04:49:57;101412.16;;;12.02;87.71
49827;BME280;35715;51.570;6.036;2022-09-25T04:52:22;101413.84;;;12.02;88.04
49827;BME280;35715;51.570;6.036;2022-09-25T04:54:48;101406.78;;;11.99;88.05
49827;BME280;35715;51.570;6.036;2022-09-25T04:57:19;101404.31;;;12.01;88.01
49827;BME280;35715;51.570;6.036;2022-09-25T04:59:51;101399.81;;;11.98;88.00
49827;BME280;35715;51.570;6.036;2022-09-25T05:02:16;101401.50;;;11.98;87.78
49827;BME280;35715;51.570;6.036;2022-09-25T05:04:41;101403.06;;;11.96;87.40
49827;BME280;35715;51.570;6.036;2022-09-25T05:07:07;101405.53;;;11.94;87.67
49827;BME280;35715;51.570;6.036;2022-09-25T05:09:36;101413.19;;;11.93;87.45
49827;BME280;35715;51.570;6.036;2022-09-25T05:12:02;101409.47;;;11.89;87.43
49827;BME280;35715;51.570;6.036;2022-09-25T05:14:27;101405.63;;;11.84;87.61
49827;BME280;35715;51.570;6.036;2022-09-25T05:16:55;101395.88;;;11.80;87.83
49827;BME280;35715;51.570;6.036;2022-09-25T05:19:22;101399.91;;;11.76;87.78
49827;BME280;35715;51.570;6.036;2022-09-25T05:21:48;101397.00;;;11.71;87.67
49827;BME280;35715;51.570;6.036;2022-09-25T05:24:32;101404.41;;;11.67;87.41
49827;BME280;35715;51.570;6.036;2022-09-25T05:26:57;101406.56;;;11.61;87.62
49827;BME280;35715;51.570;6.036;2022-09-25T05:29:49;101401.06;;;11.56;87.74
49827;BME280;35715;51.570;6.036;2022-09-25T05:32:15;101399.16;;;11.53;88.06
49827;BME280;35715;51.570;6.036;2022-09-25T05:34:41;101392.75;;;11.48;88.23
49827;BME280;35715;51.570;6.036;2022-09-25T05:37:06;101402.09;;;11.46;88.02
49827;BME280;35715;51.570;6.036;2022-09-25T05:39:34;101407.03;;;11.43;87.97
49827;BME280;35715;51.570;6.036;2022-09-25T05:41:59;101398.25;;;11.41;88.28
49827;BME280;35715;51.570;6.036;2022-09-25T05:44:26;101402.53;;;11.41;88.23
49827;BME280;35715;51.570;6.036;2022-09-25T05:46:52;101400.84;;;11.41;88.42
49827;BME280;35715;51.570;6.036;2022-09-25T05:49:21;101404.25;;;11.40;88.36
49827;BME280;35715;51.570;6.036;2022-09-25T05:51:47;101401.53;;;11.39;88.60
49827;BME280;35715;51.570;6.036;2022-09-25T05:54:13;101398.97;;;11.39;88.32
49827;BME280;35715;51.570;6.036;2022-09-25T05:56:38;101396.81;;;11.33;88.57
49827;BME280;35715;51.570;6.036;2022-09-25T05:59:03;101407.25;;;11.34;88.49
49827;BME280;35715;51.570;6.036;2022-09-25T06:01:48;101403.66;;;11.32;88.14
49827;BME280;35715;51.570;6.036;2022-09-25T06:04:13;101405.56;;;11.35;88.29
49827;BME280;35715;51.570;6.036;2022-09-25T06:06:57;101404.56;;;11.33;88.81
49827;BME280;35715;51.570;6.036;2022-09-25T06:12:24;101410.84;;;11.48;88.07
49827;BME280;35715;51.570;6.036;2022-09-25T06:14:50;101408.91;;;11.81;87.22
49827;BME280;35715;51.570;6.036;2022-09-25T06:17:16;101413.84;;;11.90;86.94
49827;BME280;35715;51.570;6.036;2022-09-25T06:19:47;101420.47;;;11.86;86.62
49827;BME280;35715;51.570;6.036;2022-09-25T06:22:13;101419.25;;;11.81;86.93
49827;BME280;35715;51.570;6.036;2022-09-25T06:24:38;101424.31;;;11.80;86.81
49827;BME280;35715;51.570;6.036;2022-09-25T06:27:07;101424.09;;;11.77;87.04
49827;BME280;35715;51.570;6.036;2022-09-25T06:29:51;101422.06;;;11.72;87.13
49827;BME280;35715;51.570;6.036;2022-09-25T06:32:17;101429.06;;;11.74;87.43
49827;BME280;35715;51.570;6.036;2022-09-25T06:34:42;101426.47;;;11.74;87.42
49827;BME280;35715;51.570;6.036;2022-09-25T06:37:07;101423.28;;;11.78;87.82
49827;BME280;35715;51.570;6.036;2022-09-25T06:39:36;101419.25;;;11.81;88.15
49827;BME280;35715;51.570;6.036;2022-09-25T06:44:45;101420.59;;;11.88;88.12
49827;BME280;35715;51.570;6.036;2022-09-25T06:47:10;101417.78;;;11.97;88.53
49827;BME280;35715;51.570;6.036;2022-09-25T06:49:40;101412.34;;;12.17;89.36
49827;BME280;35715;51.570;6.036;2022-09-25T06:52:05;101413.00;;;12.52;89.47
49827;BME280;35715;51.570;6.036;2022-09-25T06:54:30;101414.28;;;13.22;87.21
49827;BME280;35715;51.570;6.036;2022-09-25T06:56:56;101420.72;;;14.09;84.13
49827;BME280;35715;51.570;6.036;2022-09-25T06:59:21;101430.28;;;14.95;79.99
49827;BME280;35715;51.570;6.036;2022-09-25T07:01:46;101420.81;;;15.72;76.14
49827;BME280;35715;51.570;6.036;2022-09-25T07:04:12;101423.47;;;16.36;73.18
49827;BME280;35715;51.570;6.036;2022-09-25T07:06:37;101425.66;;;16.94;70.11
49827;BME280;35715;51.570;6.036;2022-09-25T07:09:03;101427.22;;;17.43;67.76
49827;BME280;35715;51.570;6.036;2022-09-25T07:11:38;101435.78;;;17.95;65.34
49827;BME280;35715;51.570;6.036;2022-09-25T07:14:08;101431.38;;;18.31;64.34
49827;BME280;35715;51.570;6.036;2022-09-25T07:16:34;101428.75;;;18.70;62.98
49827;BME280;35715;51.570;6.036;2022-09-25T07:18:59;101434.84;;;19.10;61.55
49827;BME280;35715;51.570;6.036;2022-09-25T07:21:38;101436.50;;;19.50;59.19
49827;BME280;35715;51.570;6.036;2022-09-25T07:24:03;101430.84;;;19.83;58.60
49827;BME280;35715;51.570;6.036;2022-09-25T07:26:30;101425.91;;;20.13;57.21
49827;BME280;35715;51.570;6.036;2022-09-25T07:29:03;101428.66;;;20.41;56.04
49827;BME280;35715;51.570;6.036;2022-09-25T07:31:31;101434.41;;;20.79;54.84
49827;BME280;35715;51.570;6.036;2022-09-25T07:33:58;101421.88;;;20.94;53.86
49827;BME280;35715;51.570;6.036;2022-09-25T07:36:27;101428.91;;;21.22;53.26
49827;BME280;35715;51.570;6.036;2022-09-25T07:38:53;101428.97;;;21.50;52.37
49827;BME280;35715;51.570;6.036;2022-09-25T07:41:22;101422.13;;;21.82;51.85
49827;BME280;35715;51.570;6.036;2022-09-25T07:43:52;101420.50;;;22.16;50.83
49827;BME280;35715;51.570;6.036;2022-09-25T07:46:17;101429.09;;;22.39;49.90
49827;BME280;35715;51.570;6.036;2022-09-25T07:48:43;101433.41;;;22.69;49.06
49827;BME280;35715;51.570;6.036;2022-09-25T07:51:13;101435.16;;;23.02;48.29
49827;BME280;35715;51.570;6.036;2022-09-25T07:53:39;101425.06;;;23.17;48.02
49827;BME280;35715;51.570;6.036;2022-09-25T07:56:05;101424.75;;;23.40;46.94
49827;BME280;35715;51.570;6.036;2022-09-25T07:58:30;101419.16;;;23.64;46.19
49827;BME280;35715;51.570;6.036;2022-09-25T08:01:13;101422.47;;;23.94;45.34
49827;BME280;35715;51.570;6.036;2022-09-25T08:03:39;101421.19;;;24.14;45.59
49827;BME280;35715;51.570;6.036;2022-09-25T08:06:07;101421.66;;;24.39;44.36
49827;BME280;35715;51.570;6.036;2022-09-25T08:08:34;101426.16;;;24.43;43.87
49827;BME280;35715;51.570;6.036;2022-09-25T08:11:15;101438.66;;;24.52;42.88
49827;BME280;35715;51.570;6.036;2022-09-25T08:13:42;101427.59;;;24.70;45.00
49827;BME280;35715;51.570;6.036;2022-09-25T08:16:18;101428.75;;;24.86;42.97
49827;BME280;35715;51.570;6.036;2022-09-25T08:18:46;101426.53;;;25.07;42.37
49827;BME280;35715;51.570;6.036;2022-09-25T08:21:22;101422.72;;;25.43;41.85
49827;BME280;35715;51.570;6.036;2022-09-25T08:23:50;101428.25;;;25.59;41.64
49827;BME280;35715;51.570;6.036;2022-09-25T08:26:16;101424.88;;;25.69;41.43
49827;BME280;35715;51.570;6.036;2022-09-25T08:28:42;101418.31;;;26.02;40.78
49827;BME280;35715;51.570;6.036;2022-09-25T08:31:24;101412.25;;;26.09;39.87
49827;BME280;35715;51.570;6.036;2022-09-25T08:33:50;101413.00;;;26.00;40.78
49827;BME280;35715;51.570;6.036;2022-09-25T08:36:16;101423.09;;;26.34;40.94
49827;BME280;35715;51.570;6.036;2022-09-25T08:38:42;101422.34;;;26.43;40.14
49827;BME280;35715;51.570;6.036;2022-09-25T08:41:28;101421.50;;;26.45;38.72
49827;BME280;35715;51.570;6.036;2022-09-25T08:44:02;101421.56;;;26.53;38.32
49827;BME280;35715;51.570;6.036;2022-09-25T08:46:43;101430.28;;;26.43;38.51
49827;BME280;35715;51.570;6.036;2022-09-25T08:50:13;101423.44;;;25.31;39.75
49827;BME280;35715;51.570;6.036;2022-09-25T08:52:40;101419.16;;;25.41;40.60
49827;BME280;35715;51.570;6.036;2022-09-25T08:55:16;101421.72;;;25.96;39.27
49827;BME280;35715;51.570;6.036;2022-09-25T08:57:43;101419.06;;;25.95;40.03
49827;BME280;35715;51.570;6.036;2022-09-25T09:00:18;101421.31;;;26.33;38.84
49827;BME280;35715;51.570;6.036;2022-09-25T09:02:56;101425.47;;;25.51;39.49
49827;BME280;35715;51.570;6.036;2022-09-25T09:05:35;101428.34;;;24.62;40.73
49827;BME280;35715;51.570;6.036;2022-09-25T09:08:02;101423.78;;;24.13;43.22
49827;BME280;35715;51.570;6.036;2022-09-25T09:10:52;101428.28;;;23.07;44.62
49827;BME280;35715;51.570;6.036;2022-09-25T09:18:28;101420.84;;;21.16;48.99
49827;BME280;35715;51.570;6.036;2022-09-25T09:24:30;101414.09;;;20.97;50.40
49827;BME280;35715;51.570;6.036;2022-09-25T09:27:21;101412.56;;;20.78;51.72
49827;BME280;35715;51.570;6.036;2022-09-25T09:37:53;101417.47;;;22.63;48.76
49827;BME280;35715;51.570;6.036;2022-09-25T09:43:31;101413.38;;;22.41;46.71
49827;BME280;35715;51.570;6.036;2022-09-25T09:46:10;101404.56;;;23.79;45.61
49827;BME280;35715;51.570;6.036;2022-09-25T09:51:39;101410.78;;;21.85;45.84
49827;BME280;35715;51.570;6.036;2022-09-25T09:56:35;101401.75;;;24.53;43.48
49827;BME280;35715;51.570;6.036;2022-09-25T09:59:05;101403.00;;;25.81;40.29
49827;BME280;35715;51.570;6.036;2022-09-25T10:01:41;101407.84;;;24.98;40.32
49827;BME280;35715;51.570;6.036;2022-09-25T10:04:18;101402.81;;;23.79;43.12
49827;BME280;35715;51.570;6.036;2022-09-25T10:06:58;101398.88;;;23.98;41.39
49827;BME280;35715;51.570;6.036;2022-09-25T10:09:44;101399.84;;;24.93;39.59
49827;BME280;35715;51.570;6.036;2022-09-25T10:12:22;101403.66;;;26.27;38.38
49827;BME280;35715;51.570;6.036;2022-09-25T10:14:50;101391.34;;;27.20;36.25
49827;BME280;35715;51.570;6.036;2022-09-25T10:17:17;101394.47;;;27.94;35.18
49827;BME280;35715;51.570;6.036;2022-09-25T10:19:56;101400.06;;;28.65;34.70
49827;BME280;35715;51.570;6.036;2022-09-25T10:22:28;101396.59;;;29.22;33.28
49827;BME280;35715;51.570;6.036;2022-09-25T10:24:57;101386.78;;;29.59;32.34
49827;BME280;35715;51.570;6.036;2022-09-25T10:27:33;101385.84;;;28.46;33.93
49827;BME280;35715;51.570;6.036;2022-09-25T10:35:28;101382.25;;;26.91;35.85
49827;BME280;35715;51.570;6.036;2022-09-25T10:37:57;101381.75;;;26.39;36.63
49827;BME280;35715;51.570;6.036;2022-09-25T10:40:39;101385.91;;;26.20;36.87
49827;BME280;35715;51.570;6.036;2022-09-25T10:43:19;101378.41;;;25.85;36.04
49827;BME280;35715;51.570;6.036;2022-09-25T10:45:45;101388.03;;;25.23;37.33
49827;BME280;35715;51.570;6.036;2022-09-25T10:48:25;101382.81;;;26.58;35.48
49827;BME280;35715;51.570;6.036;2022-09-25T10:51:23;101379.53;;;28.11;33.55
49827;BME280;35715;51.570;6.036;2022-09-25T10:53:51;101389.25;;;26.82;34.43
49827;BME280;35715;51.570;6.036;2022-09-25T10:56:29;101389.31;;;25.45;35.92
49827;BME280;35715;51.570;6.036;2022-09-25T10:58:58;101386.75;;;26.16;36.35
49827;BME280;35715;51.570;6.036;2022-09-25T11:01:35;101386.22;;;27.40;34.15
49827;BME280;35715;51.570;6.036;2022-09-25T11:04:04;101385.00;;;28.61;32.78
49827;BME280;35715;51.570;6.036;2022-09-25T11:06:44;101378.84;;;29.41;31.48
49827;BME280;35715;51.570;6.036;2022-09-25T11:09:17;101375.22;;;29.71;31.28
49827;BME280;35715;51.570;6.036;2022-09-25T11:11:45;101373.41;;;29.85;30.18
49827;BME280;35715;51.570;6.036;2022-09-25T11:14:26;101375.16;;;29.93;29.74
49827;BME280;35715;51.570;6.036;2022-09-25T11:16:57;101363.72;;;29.55;30.16
49827;BME280;35715;51.570;6.036;2022-09-25T11:24:47;101374.91;;;30.51;27.08
49827;BME280;35715;51.570;6.036;2022-09-25T11:27:29;101363.91;;;30.91;27.01
49827;BME280;35715;51.570;6.036;2022-09-25T11:30:16;101367.19;;;31.27;27.46
49827;BME280;35715;51.570;6.036;2022-09-25T11:38:18;101364.97;;;26.40;32.48
49827;BME280;35715;51.570;6.036;2022-09-25T11:41:20;101363.78;;;26.98;33.43
49827;BME280;35715;51.570;6.036;2022-09-25T11:46:45;101364.47;;;25.97;33.58
49827;BME280;35715;51.570;6.036;2022-09-25T11:49:27;101358.97;;;25.22;35.10
49827;BME280;35715;51.570;6.036;2022-09-25T12:04:19;101337.22;;;28.90;29.50
49827;BME280;35715;51.570;6.036;2022-09-25T12:08:59;101340.94;;;26.18;33.85
49827;BME280;35715;51.570;6.036;2022-09-25T12:14:26;101339.66;;;27.93;31.04
49827;BME280;35715;51.570;6.036;2022-09-25T12:17:05;101324.00;;;26.90;32.38
49827;BME280;35715;51.570;6.036;2022-09-25T12:23:06;101330.53;;;26.35;32.01
49827;BME280;35715;51.570;6.036;2022-09-25T12:31:42;101327.22;;;24.64;34.56
49827;BME280;35715;51.570;6.036;2022-09-25T12:37:40;101303.69;;;24.29;35.62
49827;BME280;35715;51.570;6.036;2022-09-25T12:40:39;101299.78;;;24.08;36.15
49827;BME280;35715;51.570;6.036;2022-09-25T12:43:26;101297.41;;;23.79;36.53
49827;BME280;35715;51.570;6.036;2022-09-25T12:46:00;101299.63;;;23.59;35.98
49827;BME280;35715;51.570;6.036;2022-09-25T12:48:42;101291.09;;;23.31;36.48
49827;BME280;35715;51.570;6.036;2022-09-25T12:56:42;101288.03;;;22.76;38.00
49827;BME280;35715;51.570;6.036;2022-09-25T12:59:18;101280.66;;;22.61;39.19
49827;BME280;35715;51.570;6.036;2022-09-25T13:02:05;101284.81;;;22.52;39.31
49827;BME280;35715;51.570;6.036;2022-09-25T13:05:29;101293.41;;;22.46;40.81
49827;BME280;35715;51.570;6.036;2022-09-25T13:07:40;101288.84;;;22.39;40.31
49827;BME280;35715;51.570;6.036;2022-09-25T13:12:56;101273.13;;;22.10;40.52
49827;BME280;35715;51.570;6.036;2022-09-25T13:15:27;101276.47;;;22.04;40.43
49827;BME280;35715;51.570;6.036;2022-09-25T13:17:54;101272.97;;;22.04;39.49
49827;BME280;35715;51.570;6.036;2022-09-25T13:20:52;101265.69;;;21.93;39.38
49827;BME280;35715;51.570;6.036;2022-09-25T13:23:26;101273.31;;;21.84;41.07
49827;BME280;35715;51.570;6.036;2022-09-25T13:25:54;101267.03;;;21.79;40.77
49827;BME280;35715;51.570;6.036;2022-09-25T13:28:28;101261.63;;;21.73;41.33
49827;BME280;35715;51.570;6.036;2022-09-25T13:31:04;101262.31;;;21.67;40.92
49827;BME280;35715;51.570;6.036;2022-09-25T13:33:47;101263.06;;;21.63;40.86
49827;BME280;35715;51.570;6.036;2022-09-25T13:36:45;101266.59;;;21.64;40.50
49827;BME280;35715;51.570;6.036;2022-09-25T13:45:32;101266.97;;;21.76;40.87
49827;BME280;35715;51.570;6.036;2022-09-25T13:48:03;101258.53;;;21.88;40.77
49827;BME280;35715;51.570;6.036;2022-09-25T13:50:40;101267.75;;;22.05;41.62
49827;BME280;35715;51.570;6.036;2022-09-25T13:53:10;101271.34;;;22.09;42.73
49827;BME280;35715;51.570;6.036;2022-09-25T14:00:55;101264.94;;;21.38;45.64
49827;BME280;35715;51.570;6.036;2022-09-25T14:03:42;101259.88;;;21.16;45.44
49827;BME280;35715;51.570;6.036;2022-09-25T14:06:25;101262.38;;;20.84;45.97
49827;BME280;35715;51.570;6.036;2022-09-25T14:08:55;101261.13;;;20.72;44.89
49827;BME280;35715;51.570;6.036;2022-09-25T14:11:33;101254.22;;;20.74;44.35
49827;BME280;35715;51.570;6.036;2022-09-25T14:14:01;101253.06;;;20.66;42.39
49827;BME280;35715;51.570;6.036;2022-09-25T14:16:33;101250.53;;;20.69;43.13
49827;BME280;35715;51.570;6.036;2022-09-25T14:19:00;101254.47;;;20.56;42.74
49827;BME280;35715;51.570;6.036;2022-09-25T14:21:30;101248.22;;;20.53;43.66
49827;BME280;35715;51.570;6.036;2022-09-25T14:24:18;101240.28;;;20.51;43.60
49827;BME280;35715;51.570;6.036;2022-09-25T14:26:48;101242.38;;;20.62;42.93
49827;BME280;35715;51.570;6.036;2022-09-25T14:29:22;101253.91;;;20.65;43.05
49827;BME280;35715;51.570;6.036;2022-09-25T14:40:29;101238.41;;;21.00;44.02
49827;BME280;35715;51.570;6.036;2022-09-25T14:45:58;101218.47;;;20.78;41.82
49827;BME280;35715;51.570;6.036;2022-09-25T14:48:30;101222.09;;;20.82;42.43
49827;BME280;35715;51.570;6.036;2022-09-25T14:51:08;101219.06;;;20.69;43.20
49827;BME280;35715;51.570;6.036;2022-09-25T14:53:39;101216.69;;;20.51;43.22
49827;BME280;35715;51.570;6.036;2022-09-25T14:56:07;101211.22;;;20.44;43.52
49827;BME280;35715;51.570;6.036;2022-09-25T14:58:39;101209.59;;;20.47;44.07
49827;BME280;35715;51.570;6.036;2022-09-25T15:01:22;101208.38;;;20.37;45.99
49827;BME280;35715;51.570;6.036;2022-09-25T15:03:49;101200.16;;;20.27;45.01
49827;BME280;35715;51.570;6.036;2022-09-25T15:06:44;101204.94;;;20.13;45.26
49827;BME280;35715;51.570;6.036;2022-09-25T15:09:37;101215.25;;;20.08;45.99
49827;BME280;35715;51.570;6.036;2022-09-25T15:15:11;101205.28;;;19.98;47.45
49827;BME280;35715;51.570;6.036;2022-09-25T15:17:47;101205.28;;;19.98;47.85
49827;BME280;35715;51.570;6.036;2022-09-25T15:20:33;101200.16;;;20.01;48.52
49827;BME280;35715;51.570;6.036;2022-09-25T15:23:05;101204.88;;;20.11;48.34
49827;BME280;35715;51.570;6.036;2022-09-25T15:25:37;101195.50;;;20.18;48.57
49827;BME280;35715;51.570;6.036;2022-09-25T15:28:05;101195.50;;;20.18;48.22
49827;BME280;35715;51.570;6.036;2022-09-25T15:30:37;101193.78;;;20.18;48.30
49827;BME280;35715;51.570;6.036;2022-09-25T15:33:21;101193.69;;;20.15;48.34
49827;BME280;35715;51.570;6.036;2022-09-25T15:35:54;101191.00;;;20.14;49.13
49827;BME280;35715;51.570;6.036;2022-09-25T15:38:30;101198.81;;;20.12;49.73
49827;BME280;35715;51.570;6.036;2022-09-25T15:41:02;101200.31;;;20.06;49.19
49827;BME280;35715;51.570;6.036;2022-09-25T15:43:30;101189.91;;;20.07;50.40
49827;BME280;35715;51.570;6.036;2022-09-25T15:46:23;101194.25;;;20.07;49.96
49827;BME280;35715;51.570;6.036;2022-09-25T15:48:51;101190.50;;;20.00;50.47
49827;BME280;35715;51.570;6.036;2022-09-25T15:51:34;101190.50;;;20.00;51.35
49827;BME280;35715;51.570;6.036;2022-09-25T15:54:39;101188.59;;;19.94;51.34